Time;durP1;ratioP1;P1;durP2;ratioP2;P2;SDS_P1;SDS_P2;PMS_P1;PMS_P2;Temp;Humidity;BMP_temperature;BMP_pressure;BME280_temperature;BME280_humidity;BME280_pressure;Samples;Min_cycle;Max_cycle;Signal;HPM_P1;HPM_P2
2023/01/06 00:00:14;;;;;;;70.65;39.90;;;7.80;99.90;;;;;;6270755;22;19991;-91
2023/01/06 00:02:41;;;;;;;75.72;40.17;;;7.80;99.90;;;;;;6252069;22;20079;-90
2023/01/06 00:05:49;;;;;;;73.77;39.70;;;7.80;99.90;;;;;;6228639;22;20015;31
2023/01/06 00:08:31;;;;;;;72.80;41.83;;;7.90;99.90;;;;;;6244870;22;20079;-91
2023/01/06 00:14:13;;;;;;;77.55;39.92;;;7.90;99.90;;;;;;6287731;22;20421;-94
2023/01/06 00:16:40;;;;;;;70.20;38.67;;;7.90;99.90;;;;;;6250574;22;20015;-95
2023/01/06 00:21:41;;;;;;;74.72;38.08;;;7.80;99.90;;;;;;6215676;23;20021;-95
2023/01/06 00:24:08;;;;;;;66.57;37.30;;;7.70;99.90;;;;;;6192707;23;20038;-94
2023/01/06 00:26:38;;;;;;;69.07;38.28;;;7.70;99.90;;;;;;6194929;23;20040;-92
2023/01/06 00:29:14;;;;;;;67.97;39.05;;;7.60;99.90;;;;;;6168508;23;20033;-91
2023/01/06 00:31:43;;;;;;;71.85;36.70;;;7.50;99.90;;;;;;6191998;23;20014;-94
2023/01/06 00:34:10;;;;;;;70.53;38.65;;;7.50;99.90;;;;;;6192094;23;20001;-92
2023/01/06 00:36:40;;;;;;;66.80;38.30;;;7.40;99.90;;;;;;6192684;23;20012;-92
2023/01/06 00:39:12;;;;;;;76.07;39.78;;;7.40;99.90;;;;;;6167747;23;20011;-91
2023/01/06 00:44:24;;;;;;;74.30;38.80;;;7.40;99.90;;;;;;6191622;23;20082;-92
2023/01/06 00:46:51;;;;;;;72.32;38.67;;;7.30;99.90;;;;;;6167133;23;20005;-91
2023/01/06 00:49:18;;;;;;;72.47;37.78;;;7.30;99.90;;;;;;6193540;23;20017;-94
2023/01/06 00:51:44;;;;;;;89.03;43.75;;;7.30;99.90;;;;;;6167830;23;20005;-93
2023/01/06 00:54:12;;;;;;;74.65;38.33;;;7.40;99.90;;;;;;6169392;23;20015;-94
2023/01/06 00:56:46;;;;;;;68.80;38.22;;;7.40;99.90;;;;;;6194998;23;20004;-93
2023/01/06 00:59:29;;;;;;;83.40;41.13;;;7.40;99.90;;;;;;6196066;23;20036;-94
2023/01/06 01:01:57;;;;;;;87.47;41.75;;;7.40;99.90;;;;;;6170942;23;20504;-93
2023/01/06 01:04:28;;;;;;;67.32;36.70;;;7.40;99.90;;;;;;6195595;23;20004;-94
2023/01/06 01:06:57;;;;;;;68.32;35.30;;;7.30;99.90;;;;;;6200473;23;20083;-93
2023/01/06 01:09:31;;;;;;;59.80;31.70;;;7.30;99.90;;;;;;6179850;23;20000;-93
2023/01/06 01:12:09;;;;;;;66.60;35.63;;;7.20;99.90;;;;;;6206438;23;20015;-95
2023/01/06 01:14:37;;;;;;;62.47;33.85;;;7.20;99.90;;;;;;6205298;23;20450;-92
2023/01/06 01:17:04;;;;;;;63.92;34.38;;;7.10;99.90;;;;;;6201576;23;20012;-91
2023/01/06 01:19:35;;;;;;;72.68;34.67;;;7.00;99.90;;;;;;6132317;23;20021;-91
2023/01/06 01:22:02;;;;;;;59.92;32.67;;;7.00;99.90;;;;;;6132433;23;20009;-92
2023/01/06 01:24:29;;;;;;;60.05;33.30;;;6.90;99.90;;;;;;6156140;23;20009;-92
2023/01/06 01:26:56;;;;;;;57.58;30.88;;;6.80;99.90;;;;;;6131785;23;20014;-92
2023/01/06 01:29:25;;;;;;;59.00;31.75;;;6.80;99.90;;;;;;6131777;23;20002;-93
2023/01/06 01:31:52;;;;;;;60.05;32.88;;;6.70;99.90;;;;;;6131703;23;20020;-93
2023/01/06 01:34:21;;;;;;;55.47;31.05;;;6.60;99.90;;;;;;6155999;23;20033;-91
2023/01/06 01:36:51;;;;;;;62.15;30.73;;;6.70;99.90;;;;;;6155952;23;20443;-90
2023/01/06 01:39:24;;;;;;;54.63;30.30;;;6.60;99.90;;;;;;6156167;23;20048;-90
2023/01/06 01:41:51;;;;;;;51.35;28.63;;;6.60;99.90;;;;;;6157089;23;20014;-92
2023/01/06 01:44:53;;;;;;;46.58;27.33;;;6.60;99.90;;;;;;6165671;23;20016;-91
2023/01/06 01:47:24;;;;;;;47.58;27.88;;;6.50;99.90;;;;;;6133904;23;20451;-90
2023/01/06 01:49:57;;;;;;;47.50;27.02;;;6.60;99.90;;;;;;6152938;23;20008;-93
2023/01/06 01:52:25;;;;;;;52.00;30.20;;;6.60;99.90;;;;;;6221969;23;20062;-90
2023/01/06 01:54:54;;;;;;;57.13;30.63;;;6.50;99.90;;;;;;6221203;23;19996;-92
2023/01/06 01:57:49;;;;;;;46.00;27.70;;;6.60;99.90;;;;;;6196654;23;20007;-93
2023/01/06 02:00:17;;;;;;;52.58;29.30;;;6.50;99.90;;;;;;6101944;23;20010;-94
2023/01/06 02:02:44;;;;;;;45.00;27.33;;;6.50;99.90;;;;;;6079954;23;20009;-92
2023/01/06 02:05:23;;;;;;;48.03;27.83;;;6.50;99.90;;;;;;6104019;23;20022;-94
2023/01/06 02:07:56;;;;;;;53.40;29.70;;;6.50;99.90;;;;;;6102509;23;20037;-93
2023/01/06 02:10:25;;;;;;;51.67;29.83;;;6.40;99.90;;;;;;6078786;23;20089;-93
2023/01/06 02:12:57;;;;;;;53.90;29.98;;;6.40;99.90;;;;;;6102522;23;20053;-91
2023/01/06 02:15:34;;;;;;;53.47;31.02;;;6.40;99.90;;;;;;6105275;23;20006;-91
2023/01/06 02:18:37;;;;;;;60.03;30.98;;;6.40;99.90;;;;;;6105381;23;20105;-93
2023/01/06 02:21:48;;;;;;;56.83;32.13;;;6.30;99.90;;;;;;6106325;23;20018;-93
2023/01/06 02:25:16;;;;;;;55.20;30.48;;;6.40;99.90;;;;;;6103789;23;20044;-92
2023/01/06 02:28:01;;;;;;;58.08;31.08;;;6.40;99.90;;;;;;6047063;23;20568;-95
2023/01/06 02:31:05;;;;;;;54.40;28.63;;;6.40;99.90;;;;;;6046913;23;20085;-94
2023/01/06 02:34:04;;;;;;;46.78;27.80;;;6.40;99.90;;;;;;6079254;23;20452;-94
2023/01/06 02:37:12;;;;;;;51.20;29.20;;;6.40;99.90;;;;;;6130643;23;20091;-93
2023/01/06 02:40:00;;;;;;;49.67;26.95;;;6.50;99.90;;;;;;6196645;23;20091;-93
2023/01/06 02:42:55;;;;;;;43.58;25.65;;;6.50;99.90;;;;;;6196801;23;20110;-92
2023/01/06 02:45:44;;;;;;;43.80;25.85;;;6.50;99.90;;;;;;6196448;23;20016;-91
2023/01/06 02:48:23;;;;;;;42.78;25.35;;;6.50;99.90;;;;;;6221616;23;20009;-93
2023/01/06 02:51:22;;;;;;;40.38;24.40;;;6.50;99.90;;;;;;6197689;23;20008;-93
2023/01/06 02:54:14;;;;;;;35.03;22.30;;;6.60;99.90;;;;;;6222346;23;20039;-94
2023/01/06 02:56:57;;;;;;;35.35;20.80;;;6.60;99.90;;;;;;6221907;23;20004;-92
2023/01/06 02:59:32;;;;;;;31.55;19.70;;;6.70;99.90;;;;;;6224901;23;20019;-94
2023/01/06 03:02:01;;;;;;;31.10;20.08;;;6.80;99.90;;;;;;6225008;23;20004;-92
2023/01/06 03:04:33;;;;;;;28.35;18.75;;;6.80;99.90;;;;;;6223613;23;20008;-94
2023/01/06 03:07:04;;;;;;;32.35;19.73;;;6.90;99.90;;;;;;6201275;23;20062;-93
2023/01/06 03:09:38;;;;;;;30.67;20.27;;;6.90;99.90;;;;;;6226756;23;20011;-94
2023/01/06 03:12:43;;;;;;;32.75;19.88;;;7.00;99.90;;;;;;6209307;23;20043;-92
2023/01/06 03:15:10;;;;;;;35.55;19.92;;;7.00;99.90;;;;;;6209209;23;20036;-94
2023/01/06 03:17:40;;;;;;;35.75;21.30;;;7.00;99.90;;;;;;6201653;23;20015;-93
2023/01/06 03:20:11;;;;;;;32.80;19.58;;;7.10;99.90;;;;;;6195361;23;20016;-93
2023/01/06 03:22:41;;;;;;;35.67;20.52;;;7.00;99.90;;;;;;6228538;23;20008;-93
2023/01/06 03:25:14;;;;;;;35.20;20.80;;;7.00;99.90;;;;;;6227554;23;20043;-93
2023/01/06 03:28:01;;;;;;;38.50;21.88;;;7.00;99.90;;;;;;6198408;23;20076;-94
2023/01/06 03:31:02;;;;;;;32.40;20.48;;;6.90;99.90;;;;;;6194726;23;20023;-94
2023/01/06 03:34:07;;;;;;;33.10;21.13;;;6.90;99.90;;;;;;6188195;23;20005;-92
2023/01/06 03:37:21;;;;;;;;;;;;;;;;;;;;;
2023/01/06 03:40:27;;;;;;;34.50;20.95;;;6.90;99.90;;;;;;6078126;23;20042;-94
2023/01/06 03:43:55;;;;;;;33.95;20.70;;;6.80;99.90;;;;;;6079956;23;20014;-95
2023/01/06 03:46:51;;;;;;;33.60;20.98;;;6.70;99.90;;;;;;6050035;23;20023;-90
2023/01/06 03:49:31;;;;;;;34.10;21.48;;;6.60;99.90;;;;;;6024198;23;20433;-95
2023/01/06 03:52:18;;;;;;;33.80;20.17;;;6.60;99.90;;;;;;6048926;23;20461;-93
2023/01/06 03:55:00;;;;;;;30.85;19.38;;;6.50;99.90;;;;;;6046305;23;20015;-94
2023/01/06 03:57:49;;;;;;;27.83;19.20;;;6.50;99.90;;;;;;6023625;23;20015;-93
2023/01/06 04:00:42;;;;;;;27.23;19.58;;;6.50;99.90;;;;;;6022939;23;20019;-92
2023/01/06 04:03:12;;;;;;;27.27;19.52;;;6.50;99.90;;;;;;6048225;23;20018;-94
2023/01/06 04:05:41;;;;;;;26.73;18.58;;;6.50;99.90;;;;;;6022270;23;20102;-92
2023/01/06 04:08:11;;;;;;;25.33;17.70;;;6.50;99.90;;;;;;6045423;23;19999;-94
2023/01/06 04:10:41;;;;;;;23.80;17.80;;;6.50;99.90;;;;;;6047667;23;20012;-93
2023/01/06 04:13:08;;;;;;;32.72;23.25;;;6.50;99.90;;;;;;6051132;23;20010;-93
2023/01/06 04:15:41;;;;;;;28.48;19.98;;;6.50;99.90;;;;;;6089853;23;20390;-93
2023/01/06 04:18:17;;;;;;;23.27;16.08;;;6.60;99.90;;;;;;6195739;23;20012;-92
2023/01/06 12:16:54;;;;;;;15.98;14.50;;;15.90;99.90;;;;;;6307271;22;20355;-91
2023/01/06 12:19:49;;;;;;;16.38;14.70;;;15.80;99.90;;;;;;6258870;22;20011;-91
2023/01/06 12:22:21;;;;;;;15.80;14.50;;;15.70;99.90;;;;;;6282912;22;20003;-90
2023/01/06 12:24:50;;;;;;;17.35;15.65;;;15.60;99.90;;;;;;6257030;22;20011;-93
2023/01/06 12:27:36;;;;;;;16.75;14.88;;;15.70;99.90;;;;;;6257199;22;20336;-93
2023/01/06 12:30:07;;;;;;;15.70;14.20;;;15.70;99.90;;;;;;6256811;22;20003;-92
2023/01/06 12:32:39;;;;;;;16.25;14.65;;;15.70;99.90;;;;;;6257516;22;20014;-90
2023/01/06 12:35:10;;;;;;;16.27;14.98;;;15.70;99.90;;;;;;6257161;22;20089;-89
2023/01/06 12:37:55;;;;;;;16.92;15.32;;;15.70;99.90;;;;;;6257299;22;20007;-91
2023/01/06 12:41:02;;;;;;;16.90;15.50;;;15.70;99.90;;;;;;6257321;22;20007;-91
2023/01/06 12:43:32;;;;;;;16.63;15.23;;;15.80;99.90;;;;;;6136625;23;20005;-92
2023/01/06 12:46:17;;;;;;;17.23;15.55;;;15.80;99.90;;;;;;6136414;23;20379;-90
2023/01/06 12:48:57;;;;;;;17.75;16.02;;;15.70;99.90;;;;;;6136061;23;20005;-90
2023/01/06 12:51:47;;;;;;;19.58;17.92;;;15.80;99.90;;;;;;6136318;23;20394;-90
2023/01/06 12:54:29;;;;;;;18.92;17.13;;;15.80;99.90;;;;;;6160210;23;20012;-90
2023/01/06 12:57:17;;;;;;;18.35;16.67;;;15.90;99.90;;;;;;6135955;23;20005;-89
2023/01/06 13:00:21;;;;;;;18.67;16.98;;;15.90;99.90;;;;;;6136141;23;20009;-91
2023/01/06 13:02:59;;;;;;;20.15;18.17;;;15.90;99.90;;;;;;6160886;23;20005;-89
2023/01/06 13:05:47;;;;;;;23.02;19.50;;;15.80;99.90;;;;;;6160549;23;20020;-91
2023/01/06 13:08:31;;;;;;;19.05;17.48;;;15.70;99.90;;;;;;6160876;23;20016;-90
2023/01/06 13:11:04;;;;;;;;;;;15.60;99.90;;;;;;6136491;23;20511;-90
2023/01/06 13:13:54;;;;;;;18.08;16.35;;;15.60;99.90;;;;;;6135974;23;20003;-90
2023/01/06 13:16:48;;;;;;;18.02;16.25;;;15.60;99.90;;;;;;6120527;23;20024;-89
2023/01/06 13:19:33;;;;;;;18.63;17.20;;;15.70;99.90;;;;;;6221407;23;20099;-90
2023/01/06 13:22:03;;;;;;;20.35;18.33;;;15.70;99.90;;;;;;6221475;23;20004;-90
2023/01/06 13:25:10;;;;;;;18.48;16.77;;;15.60;99.90;;;;;;6221410;23;20012;-91
2023/01/06 13:27:37;;;;;;;19.50;17.85;;;15.50;99.90;;;;;;6221520;23;20023;-91
2023/01/06 13:30:54;;;;;;;19.42;17.50;;;15.50;99.90;;;;;;6221544;23;20418;-92
2023/01/06 13:33:50;;;;;;;19.63;17.63;;;15.50;99.90;;;;;;6165576;23;20012;-91
2023/01/06 13:36:20;;;;;;;19.27;17.52;;;15.50;99.90;;;;;;6190244;23;20011;-92
2023/01/06 13:39:22;;;;;;;21.08;17.70;;;15.40;99.90;;;;;;6207816;23;20008;-91
2023/01/06 13:41:54;;;;;;;19.70;17.60;;;15.40;99.90;;;;;;6165383;23;20373;-92
2023/01/06 13:44:25;;;;;;;19.98;18.00;;;15.30;99.90;;;;;;6165599;23;20338;-92
2023/01/06 13:46:59;;;;;;;18.30;16.67;;;15.20;99.90;;;;;;6165027;23;20016;-91
2023/01/06 13:49:26;;;;;;;28.27;21.25;;;15.20;99.90;;;;;;6165598;23;20009;-92
2023/01/06 13:51:53;;;;;;;21.38;19.15;;;15.10;99.90;;;;;;6165717;23;20009;-90
2023/01/06 13:54:38;;;;;;;20.10;18.25;;;15.10;99.90;;;;;;6165425;23;20068;-89
2023/01/06 13:57:19;;;;;;;;;;;15.00;99.90;;;;;;6165658;23;20008;-91
2023/01/06 14:00:11;;;;;;;18.17;16.48;;;15.00;99.90;;;;;;6189954;23;20306;-92
2023/01/06 14:02:49;;;;;;;18.55;16.85;;;15.00;99.90;;;;;;6165919;23;20009;-91
2023/01/06 14:05:22;;;;;;;17.13;15.63;;;15.00;99.90;;;;;;6165702;23;20066;-90
2023/01/06 14:07:52;;;;;;;19.40;17.55;;;14.90;99.90;;;;;;6165371;23;20095;-90
2023/01/06 14:10:41;;;;;;;16.98;15.48;;;14.80;99.90;;;;;;6165845;23;20008;-92
2023/01/06 14:13:35;;;;;;;18.13;16.25;;;14.70;99.90;;;;;;6215864;23;20008;-90
2023/01/06 14:16:05;;;;;;;17.55;15.90;;;14.70;99.90;;;;;;6146332;23;20017;-93
2023/01/06 14:18:43;;;;;;;17.85;16.23;;;14.60;99.90;;;;;;6247518;22;20015;-91
2023/01/06 14:21:12;;;;;;;18.00;16.20;;;14.60;99.90;;;;;;6224480;23;20011;-92
2023/01/06 14:23:55;;;;;;;17.35;15.93;;;14.50;99.90;;;;;;6250055;22;20012;-89
2023/01/06 14:26:42;;;;;;;17.88;16.30;;;14.50;99.90;;;;;;6223951;23;20019;-90
2023/01/06 14:29:40;;;;;;;16.83;15.43;;;14.60;99.90;;;;;;6224735;23;20019;-90
2023/01/06 14:32:10;;;;;;;17.23;15.63;;;14.60;99.90;;;;;;6221544;23;20023;-91
2023/01/06 14:34:41;;;;;;;17.65;15.95;;;14.60;99.90;;;;;;6221444;23;20036;-91
2023/01/06 14:37:14;;;;;;;18.13;16.27;;;14.60;99.90;;;;;;6221965;23;20437;-89
2023/01/06 14:39:46;;;;;;;18.75;16.73;;;14.50;99.90;;;;;;6222718;23;20058;-92
2023/01/06 14:42:33;;;;;;;17.80;16.20;;;14.40;99.90;;;;;;6221024;23;20091;-92
2023/01/06 14:45:06;;;;;;;17.67;16.17;;;14.30;99.90;;;;;;6220803;23;20167;-91
2023/01/06 14:47:44;;;;;;;16.77;15.10;;;14.20;99.90;;;;;;6220785;23;20008;-90
2023/01/06 14:50:23;;;;;;;17.02;15.32;;;14.10;99.90;;;;;;6221161;23;20008;-90
2023/01/06 14:53:01;;;;;;;17.95;16.05;;;14.00;99.90;;;;;;6246022;22;20008;-91
2023/01/06 14:55:32;;;;;;;18.38;16.02;;;13.90;99.90;;;;;;6222450;23;20004;-91
2023/01/06 14:57:59;;;;;;;17.02;15.23;;;13.90;99.90;;;;;;6222678;23;20015;-92
2023/01/06 15:00:28;;;;;;;25.50;15.82;;;13.90;99.90;;;;;;6222752;23;20075;-92
2023/01/06 15:02:58;;;;;;;20.77;16.08;;;13.80;99.90;;;;;;6222718;23;20091;-91
2023/01/06 15:05:29;;;;;;;17.88;15.60;;;13.80;99.90;;;;;;6222401;23;20018;-91
2023/01/06 15:07:59;;;;;;;23.77;16.05;;;13.80;99.90;;;;;;6248550;22;20472;-92
2023/01/06 15:10:27;;;;;;;17.45;15.73;;;13.80;99.90;;;;;;6222600;23;20082;-89
2023/01/06 15:12:55;;;;;;;24.70;17.88;;;13.70;99.90;;;;;;6222727;23;20008;-90
2023/01/06 15:15:31;;;;;;;20.02;14.85;;;13.70;99.90;;;;;;6233838;22;20461;-91
2023/01/06 15:18:00;;;;;;;19.42;16.50;;;13.60;99.90;;;;;;6278464;22;20437;-88
2023/01/06 15:20:41;;;;;;;17.48;15.20;;;13.60;99.90;;;;;;6253122;22;20004;-89
2023/01/06 15:23:13;;;;;;;17.35;15.60;;;13.60;99.90;;;;;;6252922;22;20012;-89
2023/01/06 15:25:41;;;;;;;16.80;15.10;;;13.50;99.90;;;;;;6278466;22;20016;-89
2023/01/06 15:28:33;;;;;;;21.02;15.70;;;13.50;99.90;;;;;;6252700;22;20012;-89
2023/01/06 15:31:01;;;;;;;18.90;16.17;;;13.50;99.90;;;;;;6278774;22;20090;-91
2023/01/06 15:33:40;;;;;;;22.10;17.02;;;13.40;99.90;;;;;;6253254;22;20004;-89
2023/01/06 15:36:07;;;;;;;23.25;17.33;;;13.40;99.90;;;;;;6278446;22;20063;-89
2023/01/06 15:38:38;;;;;;;23.17;18.27;;;13.30;99.90;;;;;;6253208;22;20011;-91
2023/01/06 15:41:31;;;;;;;23.92;20.67;;;13.30;99.90;;;;;;6278869;22;20007;-89
2023/01/06 15:43:53;;;;;;;29.02;21.70;;;13.30;99.90;;;;;;6278683;22;20011;-91
2023/01/06 15:46:20;;;;;;;25.33;19.60;;;13.20;99.90;;;;;;6256931;22;20020;-90
2023/01/06 15:48:47;;;;;;;42.65;24.92;;;13.10;99.90;;;;;;6256623;22;20031;-88
2023/01/06 15:51:17;;;;;;;26.73;20.00;;;13.10;99.90;;;;;;6253691;22;20007;-89
2023/01/06 15:53:47;;;;;;;30.42;20.83;;;13.00;99.90;;;;;;6252093;22;20007;-90
2023/01/06 15:56:21;;;;;;;32.35;22.08;;;13.00;99.90;;;;;;6252056;22;20019;-89
2023/01/06 15:58:51;;;;;;;30.20;21.40;;;13.00;99.90;;;;;;6278499;22;20381;-90
2023/01/06 16:01:22;;;;;;;27.45;21.05;;;12.90;99.90;;;;;;6277998;22;20012;-90
2023/01/06 16:04:00;;;;;;;25.60;22.48;;;12.80;99.90;;;;;;6253190;22;20011;-92
2023/01/06 16:06:39;;;;;;;25.38;19.70;;;12.80;99.90;;;;;;6277297;22;20016;-92
2023/01/06 16:09:18;;;;;;;32.25;21.00;;;12.80;99.90;;;;;;6252209;22;20082;-90
2023/01/06 16:12:18;;;;;;;33.13;21.92;;;12.70;99.90;;;;;;6252617;22;20015;-90
2023/01/06 16:14:48;;;;;;;34.35;23.17;;;12.70;99.90;;;;;;6256586;22;20054;-91
2023/01/06 16:17:32;;;;;;;27.10;20.42;;;12.60;99.90;;;;;;6257411;22;20011;-88
2023/01/06 16:20:06;;;;;;;29.83;21.03;;;12.60;99.90;;;;;;6257393;22;20018;-90
2023/01/06 16:22:54;;;;;;;32.63;19.42;;;12.50;99.90;;;;;;6257176;22;20012;-92
2023/01/06 16:25:20;;;;;;;30.17;19.20;;;12.50;99.90;;;;;;6257375;22;20015;-89
2023/01/06 16:27:48;;;;;;;30.63;23.25;;;12.50;99.90;;;;;;6257346;22;20011;-89
2023/01/06 16:30:21;;;;;;;38.55;26.27;;;12.40;99.90;;;;;;6257068;22;19999;-91
2023/01/06 16:32:51;;;;;;;30.77;22.17;;;12.40;99.90;;;;;;6257363;22;20007;-91
2023/01/06 16:35:32;;;;;;;32.40;24.90;;;12.30;99.90;;;;;;6257166;22;20111;-89
2023/01/06 16:37:59;;;;;;;38.28;25.52;;;12.40;99.90;;;;;;6258152;22;20003;-90
2023/01/06 16:40:27;;;;;;;34.22;23.00;;;12.30;99.90;;;;;;6258149;22;20010;-92
2023/01/06 16:42:59;;;;;;;33.83;24.85;;;12.30;99.90;;;;;;6257682;22;20011;-90
2023/01/06 16:45:33;;;;;;;41.85;29.42;;;12.30;99.90;;;;;;6256988;22;20145;-92
2023/01/06 16:47:59;;;;;;;39.30;29.13;;;12.20;99.90;;;;;;6257380;22;20011;-91
2023/01/06 16:50:43;;;;;;;44.80;28.48;;;12.20;99.90;;;;;;6256644;22;20007;-91
2023/01/06 16:53:15;;;;;;;43.33;28.67;;;12.20;99.90;;;;;;6256985;22;20011;-91
2023/01/06 16:55:42;;;;;;;52.08;33.30;;;12.10;99.90;;;;;;6256878;22;20026;-92
2023/01/06 16:58:18;;;;;;;43.60;30.10;;;12.10;99.90;;;;;;6256815;22;20011;-90
2023/01/06 17:00:53;;;;;;;45.50;28.63;;;12.00;99.90;;;;;;6256925;22;20007;-90
2023/01/06 17:03:30;;;;;;;36.90;25.33;;;12.10;99.90;;;;;;6256811;22;20015;-92
2023/01/06 17:05:57;;;;;;;37.08;23.35;;;12.00;99.90;;;;;;6256885;22;20015;-88
2023/01/06 17:08:31;;;;;;;36.10;22.95;;;12.10;99.90;;;;;;6257090;22;20341;-89
2023/01/06 17:11:09;;;;;;;40.30;26.48;;;12.10;99.90;;;;;;6257116;22;20011;-89
2023/01/06 17:13:38;;;;;;;54.03;31.33;;;12.10;99.90;;;;;;6256674;22;20029;-90
2023/01/06 17:16:13;;;;;;;55.10;32.58;;;12.10;99.90;;;;;;6255891;22;20015;-90
2023/01/06 17:18:58;;;;;;;45.85;30.00;;;12.10;99.90;;;;;;6256583;22;20015;-89
2023/01/06 17:21:36;;;;;;;58.38;33.88;;;12.10;99.90;;;;;;6256410;22;20007;-89
2023/01/06 17:24:22;;;;;;;43.20;28.10;;;12.10;99.90;;;;;;6256626;22;20010;-89
2023/01/06 17:27:01;;;;;;;44.63;28.13;;;12.00;99.90;;;;;;6256465;22;20094;-89
2023/01/06 17:29:31;;;;;;;61.78;39.25;;;12.00;99.90;;;;;;6257161;22;20061;-91
2023/01/06 17:32:01;;;;;;;53.38;35.17;;;11.90;99.90;;;;;;6257404;22;20452;-90
2023/01/06 17:34:32;;;;;;;52.75;34.47;;;11.90;99.90;;;;;;6257284;22;20003;-91
2023/01/06 17:37:20;;;;;;;52.58;32.88;;;11.90;99.90;;;;;;6256798;22;20302;-90
2023/01/06 17:39:47;;;;;;;49.53;32.47;;;11.90;99.90;;;;;;6257169;22;20014;-91
2023/01/06 17:42:13;;;;;;;43.05;30.02;;;11.80;99.90;;;;;;6256863;22;20003;-90
2023/01/06 17:44:47;;;;;;;48.25;31.80;;;11.80;99.90;;;;;;6256674;22;20007;-89
2023/01/06 17:47:16;;;;;;;40.43;28.93;;;11.80;99.90;;;;;;6256741;22;20043;-89
2023/01/06 17:49:57;;;;;;;44.20;31.98;;;11.80;99.90;;;;;;6256470;22;20055;-90
2023/01/06 17:52:36;;;;;;;47.58;31.88;;;11.80;99.90;;;;;;6257036;22;20007;-89
2023/01/06 17:55:44;;;;;;;62.25;38.95;;;11.80;99.90;;;;;;6256348;22;20030;-92
2023/01/06 17:58:14;;;;;;;49.05;32.05;;;11.70;99.90;;;;;;6253481;22;20011;-88
2023/01/06 18:00:41;;;;;;;46.35;28.40;;;11.70;99.90;;;;;;6256405;22;20015;-90
2023/01/06 18:03:21;;;;;;;45.22;28.23;;;11.60;99.90;;;;;;6256186;22;20003;-89
2023/01/06 18:06:17;;;;;;;56.22;31.42;;;11.60;99.90;;;;;;6256186;22;20011;-89
2023/01/06 18:08:44;;;;;;;70.95;41.28;;;11.60;99.90;;;;;;6135555;23;20036;-90
2023/01/06 18:11:20;;;;;;;61.83;38.22;;;11.40;99.90;;;;;;6135372;23;20076;-90
2023/01/06 18:13:49;;;;;;;64.43;37.75;;;11.40;99.90;;;;;;6135431;23;20013;-90
2023/01/06 18:16:28;;;;;;;58.38;35.75;;;11.30;99.90;;;;;;6113612;23;20178;-89
2023/01/06 18:19:21;;;;;;;81.55;43.50;;;11.20;99.90;;;;;;6130335;23;20025;-88
2023/01/06 18:21:48;;;;;;;68.88;38.53;;;11.20;99.90;;;;;;6072070;23;20011;-90
2023/01/06 18:24:20;;;;;;;61.33;36.55;;;11.20;99.90;;;;;;6048612;23;20329;-88
2023/01/06 18:26:59;;;;;;;74.57;40.13;;;11.20;99.90;;;;;;6072160;23;20475;-89
2023/01/06 18:29:38;;;;;;;56.78;33.85;;;11.20;99.90;;;;;;6049749;23;20091;-88
2023/01/06 18:32:24;;;;;;;54.55;35.53;;;11.20;99.90;;;;;;6050334;23;20455;-89
2023/01/06 18:34:56;;;;;;;57.38;34.10;;;11.20;99.90;;;;;;6050216;23;20021;-91
2023/01/06 18:37:28;;;;;;;54.83;34.78;;;11.20;99.90;;;;;;6050442;23;20034;-90
2023/01/06 18:40:01;;;;;;;53.05;30.88;;;11.20;99.90;;;;;;6050013;23;20014;-91
2023/01/06 18:42:36;;;;;;;57.88;33.70;;;11.20;99.90;;;;;;6050121;23;20018;-90
2023/01/06 18:45:30;;;;;;;57.00;35.83;;;11.10;99.90;;;;;;6092423;23;20447;-89
2023/01/06 18:48:15;;;;;;;60.58;35.80;;;11.00;99.90;;;;;;6137050;23;20009;-88
2023/01/06 18:50:44;;;;;;;52.78;34.47;;;10.90;99.90;;;;;;6137158;23;20059;-90
2023/01/06 18:53:38;;;;;;;67.75;38.05;;;10.80;99.90;;;;;;6137838;23;20092;-92
2023/01/06 18:56:25;;;;;;;54.78;33.42;;;10.80;99.90;;;;;;6136610;23;20053;-91
2023/01/06 18:58:56;;;;;;;63.83;37.92;;;10.70;99.90;;;;;;6183738;23;20062;-91
2023/01/06 19:01:41;;;;;;;61.90;36.85;;;10.70;99.90;;;;;;6222549;23;20023;-92
2023/01/06 19:04:31;;;;;;;63.25;37.58;;;10.60;99.90;;;;;;6222611;23;20292;-91
2023/01/06 19:07:26;;;;;;;63.28;37.08;;;10.60;99.90;;;;;;6222667;23;20012;-92
2023/01/06 19:09:56;;;;;;;67.47;37.10;;;10.60;99.90;;;;;;6222372;23;20680;-92
2023/01/06 19:12:38;;;;;;;66.00;39.22;;;10.60;99.90;;;;;;6222380;23;20001;-90
2023/01/06 19:15:18;;;;;;;128.02;65.50;;;10.50;99.90;;;;;;6230496;22;20038;-90
2023/01/06 19:17:46;;;;;;;93.72;50.58;;;10.50;99.90;;;;;;6278408;22;20008;-90
2023/01/06 19:20:27;;;;;;;192.73;92.15;;;10.50;99.90;;;;;;6253158;22;20074;-92
2023/01/06 19:22:55;;;;;;;384.63;196.80;;;10.40;99.90;;;;;;6252639;22;20015;-88
2023/01/06 19:25:52;;;;;;;251.32;140.15;;;10.40;99.90;;;;;;6252200;22;20065;-92
2023/01/06 19:28:28;;;;;;;124.75;81.65;;;10.30;99.90;;;;;;6166240;23;20005;-91
2023/01/06 19:30:57;;;;;;;75.47;42.65;;;10.30;99.90;;;;;;6166181;23;20087;-90
2023/01/06 19:33:37;;;;;;;77.38;45.50;;;10.30;99.90;;;;;;6166245;23;20080;-90
2023/01/06 19:36:24;;;;;;;78.00;44.63;;;10.20;99.90;;;;;;6166043;23;20009;-90
2023/01/06 19:38:51;;;;;;;74.50;41.58;;;10.20;99.90;;;;;;6166266;23;20019;-91
2023/01/06 19:41:24;;;;;;;81.25;43.83;;;10.20;99.90;;;;;;6166382;23;20070;-90
2023/01/06 19:44:00;;;;;;;68.57;39.58;;;10.20;99.90;;;;;;6165834;23;20020;-90
2023/01/06 19:46:28;;;;;;;76.20;44.80;;;10.20;99.90;;;;;;6166191;23;20462;-91
2023/01/06 19:48:55;;;;;;;80.80;42.63;;;10.10;99.90;;;;;;6166941;23;20009;-92
2023/01/06 19:51:32;;;;;;;83.35;49.08;;;10.10;99.90;;;;;;6166702;23;20450;-89
2023/01/06 19:54:03;;;;;;;89.18;50.35;;;10.10;99.90;;;;;;6166244;23;20009;-89
2023/01/06 19:56:35;;;;;;;97.40;57.72;;;10.10;99.90;;;;;;6166420;23;20013;-90
2023/01/06 19:59:20;;;;;;;84.60;45.60;;;10.10;99.90;;;;;;6166471;23;20012;-88
2023/01/06 20:01:53;;;;;;;82.25;46.70;;;10.10;99.90;;;;;;6166302;23;20009;-93
2023/01/06 20:04:25;;;;;;;80.82;45.08;;;10.10;99.90;;;;;;6181700;22;20012;-90
2023/01/06 20:06:52;;;;;;;95.00;55.33;;;10.00;99.90;;;;;;6252029;22;20019;-88
2023/01/06 20:09:22;;;;;;;91.45;50.42;;;10.10;99.90;;;;;;6252272;22;20000;-89
2023/01/06 20:11:50;;;;;;;81.32;45.95;;;10.00;99.90;;;;;;6252321;22;20004;-91
2023/01/06 20:14:18;;;;;;;87.80;46.15;;;10.00;99.90;;;;;;6277674;22;20003;-89
2023/01/06 20:16:46;;;;;;;94.13;49.47;;;10.00;99.90;;;;;;6277765;22;20518;-90
2023/01/06 20:19:14;;;;;;;99.10;50.65;;;10.00;99.90;;;;;;6252385;22;20011;-88
2023/01/06 20:21:44;;;;;;;107.25;53.42;;;10.00;99.90;;;;;;6278104;22;20069;-89
2023/01/06 20:24:13;;;;;;;109.88;56.60;;;10.00;99.90;;;;;;6252165;22;20035;-88
2023/01/06 20:26:40;;;;;;;105.13;57.03;;;10.00;99.90;;;;;;6252216;22;20016;-89
2023/01/06 20:29:07;;;;;;;106.50;57.67;;;9.90;99.90;;;;;;6251990;22;20452;-87
2023/01/06 20:31:34;;;;;;;99.22;51.22;;;9.90;99.90;;;;;;6251988;22;20007;-88
2023/01/06 20:34:00;;;;;;;104.75;52.75;;;9.90;99.90;;;;;;6252507;22;20007;-90
2023/01/06 20:36:27;;;;;;;105.93;51.90;;;9.90;99.90;;;;;;6252208;22;20008;-87
2023/01/06 20:38:54;;;;;;;102.43;51.67;;;10.00;99.90;;;;;;6277677;22;20007;-88
2023/01/06 20:41:21;;;;;;;100.97;50.70;;;10.00;99.90;;;;;;6251937;22;20016;-88
2023/01/06 20:43:51;;;;;;;94.05;48.80;;;10.00;99.90;;;;;;6251837;22;20004;-90
2023/01/06 20:46:18;;;;;;;104.97;54.25;;;10.00;99.90;;;;;;6251808;22;20061;-89
2023/01/06 20:48:46;;;;;;;108.43;57.05;;;9.90;99.90;;;;;;6277245;22;20425;-90
2023/01/06 20:51:13;;;;;;;118.60;61.13;;;9.90;99.90;;;;;;6251534;22;20004;-89
2023/01/06 20:53:40;;;;;;;109.88;60.15;;;9.90;99.90;;;;;;6277365;22;20008;-88
2023/01/06 20:56:07;;;;;;;130.25;68.05;;;9.90;99.90;;;;;;6251842;22;20011;-89
2023/01/06 20:58:34;;;;;;;109.10;58.65;;;9.80;99.90;;;;;;6277907;22;20012;-89
2023/01/06 21:01:01;;;;;;;119.97;61.25;;;9.80;99.90;;;;;;6251919;22;20014;-88
2023/01/06 21:03:28;;;;;;;115.07;58.45;;;9.70;99.90;;;;;;6252096;22;20413;-88
2023/01/06 21:05:54;;;;;;;109.72;54.97;;;9.70;99.90;;;;;;6277202;22;20018;-89
2023/01/06 21:08:21;;;;;;;108.53;55.90;;;9.70;99.90;;;;;;6251852;22;20015;-91
2023/01/06 21:10:48;;;;;;;115.22;58.65;;;9.70;99.90;;;;;;6277350;22;20483;-88
2023/01/06 21:13:15;;;;;;;113.03;57.85;;;9.70;99.90;;;;;;6251760;22;20004;-91
2023/01/06 21:15:43;;;;;;;104.32;53.67;;;9.60;99.90;;;;;;6276774;22;20073;-90
2023/01/06 21:18:09;;;;;;;95.75;50.70;;;9.70;99.90;;;;;;6277079;22;20423;-89
2023/01/06 21:20:37;;;;;;;101.82;50.30;;;9.70;99.90;;;;;;6251506;22;20056;-88
2023/01/06 21:23:08;;;;;;;105.00;51.78;;;9.80;99.90;;;;;;6251615;22;20006;-89